sensor_id;sensor_type;location;lat;lon;timestamp;P1;durP1;ratioP1;P2;durP2;ratioP2
29362;SDS011;16349;53.672;10.014;2023-07-20T00:01:51;1.93;;;1.43;;
29362;SDS011;16349;53.672;10.014;2023-07-20T00:04:18;1.77;;;1.60;;
29362;SDS011;16349;53.672;10.014;2023-07-20T00:06:46;1.33;;;1.30;;
29362;SDS011;16349;53.672;10.014;2023-07-20T00:09:13;1.90;;;1.70;;
29362;SDS011;16349;53.672;10.014;2023-07-20T00:11:39;2.03;;;1.40;;
29362;SDS011;16349;53.672;10.014;2023-07-20T00:14:06;3.60;;;1.57;;
29362;SDS011;16349;53.672;10.014;2023-07-20T00:16:33;3.33;;;1.77;;
29362;SDS011;16349;53.672;10.014;2023-07-20T00:19:00;1.57;;;1.47;;
29362;SDS011;16349;53.672;10.014;2023-07-20T00:21:27;1.73;;;1.63;;
29362;SDS011;16349;53.672;10.014;2023-07-20T00:23:55;1.60;;;1.50;;
29362;SDS011;16349;53.672;10.014;2023-07-20T00:26:22;2.93;;;2.20;;
29362;SDS011;16349;53.672;10.014;2023-07-20T00:28:49;2.20;;;1.63;;
29362;SDS011;16349;53.672;10.014;2023-07-20T00:31:18;1.70;;;1.60;;
29362;SDS011;16349;53.672;10.014;2023-07-20T00:33:45;3.30;;;1.90;;
29362;SDS011;16349;53.672;10.014;2023-07-20T00:36:12;2.50;;;1.70;;
29362;SDS011;16349;53.672;10.014;2023-07-20T00:38:41;2.80;;;1.60;;
29362;SDS011;16349;53.672;10.014;2023-07-20T00:41:10;3.30;;;2.33;;
29362;SDS011;16349;53.672;10.014;2023-07-20T00:43:39;3.10;;;2.00;;
29362;SDS011;16349;53.672;10.014;2023-07-20T00:46:06;3.50;;;2.40;;
29362;SDS011;16349;53.672;10.014;2023-07-20T00:48:34;3.63;;;2.33;;
29362;SDS011;16349;53.672;10.014;2023-07-20T00:51:01;3.00;;;2.30;;
29362;SDS011;16349;53.672;10.014;2023-07-20T00:53:28;3.13;;;2.40;;
29362;SDS011;16349;53.672;10.014;2023-07-20T00:55:56;3.50;;;2.10;;
29362;SDS011;16349;53.672;10.014;2023-07-20T00:58:24;2.87;;;2.40;;
29362;SDS011;16349;53.672;10.014;2023-07-20T01:00:52;3.90;;;2.57;;
29362;SDS011;16349;53.672;10.014;2023-07-20T01:03:19;2.87;;;2.40;;
29362;SDS011;16349;53.672;10.014;2023-07-20T01:05:50;2.50;;;2.27;;
29362;SDS011;16349;53.672;10.014;2023-07-20T01:08:24;3.50;;;2.50;;
29362;SDS011;16349;53.672;10.014;2023-07-20T01:10:59;3.47;;;2.13;;
29362;SDS011;16349;53.672;10.014;2023-07-20T01:13:32;2.93;;;2.70;;
29362;SDS011;16349;53.672;10.014;2023-07-20T01:16:00;3.10;;;2.67;;
29362;SDS011;16349;53.672;10.014;2023-07-20T01:18:27;3.77;;;2.80;;
29362;SDS011;16349;53.672;10.014;2023-07-20T01:20:56;2.93;;;2.63;;
29362;SDS011;16349;53.672;10.014;2023-07-20T01:23:35;3.03;;;2.80;;
29362;SDS011;16349;53.672;10.014;2023-07-20T01:26:37;4.63;;;2.87;;
29362;SDS011;16349;53.672;10.014;2023-07-20T01:29:24;4.43;;;2.90;;
29362;SDS011;16349;53.672;10.014;2023-07-20T01:32:00;5.83;;;3.03;;
29362;SDS011;16349;53.672;10.014;2023-07-20T01:34:32;6.03;;;3.80;;
29362;SDS011;16349;53.672;10.014;2023-07-20T01:37:02;3.83;;;3.23;;
29362;SDS011;16349;53.672;10.014;2023-07-20T01:39:31;4.37;;;3.37;;
29362;SDS011;16349;53.672;10.014;2023-07-20T01:41:59;4.93;;;3.17;;
29362;SDS011;16349;53.672;10.014;2023-07-20T01:44:28;4.03;;;3.70;;
29362;SDS011;16349;53.672;10.014;2023-07-20T01:46:55;3.50;;;3.30;;
29362;SDS011;16349;53.672;10.014;2023-07-20T01:49:23;3.93;;;3.63;;
29362;SDS011;16349;53.672;10.014;2023-07-20T01:51:50;4.30;;;3.40;;
29362;SDS011;16349;53.672;10.014;2023-07-20T01:54:17;5.53;;;3.37;;
29362;SDS011;16349;53.672;10.014;2023-07-20T01:56:44;4.60;;;3.80;;
29362;SDS011;16349;53.672;10.014;2023-07-20T01:59:11;5.53;;;3.67;;
29362;SDS011;16349;53.672;10.014;2023-07-20T02:01:38;4.70;;;3.87;;
29362;SDS011;16349;53.672;10.014;2023-07-20T02:04:05;4.40;;;4.00;;
29362;SDS011;16349;53.672;10.014;2023-07-20T02:06:33;7.10;;;4.03;;
29362;SDS011;16349;53.672;10.014;2023-07-20T02:09:00;4.77;;;4.37;;
29362;SDS011;16349;53.672;10.014;2023-07-20T02:11:30;6.10;;;4.50;;
29362;SDS011;16349;53.672;10.014;2023-07-20T02:13:57;4.90;;;4.17;;
29362;SDS011;16349;53.672;10.014;2023-07-20T02:16:24;4.50;;;4.03;;
29362;SDS011;16349;53.672;10.014;2023-07-20T02:18:51;5.20;;;4.73;;
29362;SDS011;16349;53.672;10.014;2023-07-20T02:21:18;4.53;;;4.13;;
29362;SDS011;16349;53.672;10.014;2023-07-20T02:23:46;5.47;;;4.07;;
29362;SDS011;16349;53.672;10.014;2023-07-20T02:26:13;6.60;;;5.27;;
29362;SDS011;16349;53.672;10.014;2023-07-20T02:28:40;6.30;;;4.77;;
29362;SDS011;16349;53.672;10.014;2023-07-20T02:31:07;5.63;;;4.83;;
29362;SDS011;16349;53.672;10.014;2023-07-20T02:33:34;5.03;;;4.63;;
29362;SDS011;16349;53.672;10.014;2023-07-20T02:36:01;5.00;;;4.60;;
29362;SDS011;16349;53.672;10.014;2023-07-20T02:38:28;5.13;;;4.73;;
29362;SDS011;16349;53.672;10.014;2023-07-20T02:40:56;5.27;;;4.80;;
29362;SDS011;16349;53.672;10.014;2023-07-20T02:43:23;6.83;;;5.23;;
29362;SDS011;16349;53.672;10.014;2023-07-20T02:45:50;5.87;;;5.27;;
29362;SDS011;16349;53.672;10.014;2023-07-20T02:48:17;6.63;;;5.57;;
29362;SDS011;16349;53.672;10.014;2023-07-20T02:50:44;9.80;;;6.53;;
29362;SDS011;16349;53.672;10.014;2023-07-20T02:53:11;6.13;;;5.63;;
29362;SDS011;16349;53.672;10.014;2023-07-20T02:55:37;7.67;;;6.23;;
29362;SDS011;16349;53.672;10.014;2023-07-20T02:58:06;7.03;;;6.30;;
29362;SDS011;16349;53.672;10.014;2023-07-20T03:00:32;7.10;;;5.63;;
29362;SDS011;16349;53.672;10.014;2023-07-20T03:02:59;6.13;;;5.63;;
29362;SDS011;16349;53.672;10.014;2023-07-20T03:05:27;7.00;;;5.40;;
29362;SDS011;16349;53.672;10.014;2023-07-20T03:07:54;6.60;;;6.00;;
29362;SDS011;16349;53.672;10.014;2023-07-20T03:10:21;6.43;;;5.83;;
29362;SDS011;16349;53.672;10.014;2023-07-20T03:12:48;6.80;;;6.10;;
29362;SDS011;16349;53.672;10.014;2023-07-20T03:15:16;6.83;;;6.13;;
29362;SDS011;16349;53.672;10.014;2023-07-20T03:17:43;8.13;;;6.60;;
29362;SDS011;16349;53.672;10.014;2023-07-20T03:20:11;8.10;;;6.07;;
29362;SDS011;16349;53.672;10.014;2023-07-20T03:22:39;6.87;;;6.17;;
29362;SDS011;16349;53.672;10.014;2023-07-20T03:25:06;6.83;;;5.67;;
29362;SDS011;16349;53.672;10.014;2023-07-20T03:27:34;5.93;;;5.40;;
29362;SDS011;16349;53.672;10.014;2023-07-20T03:30:01;6.30;;;5.80;;
29362;SDS011;16349;53.672;10.014;2023-07-20T03:32:30;6.43;;;5.83;;
29362;SDS011;16349;53.672;10.014;2023-07-20T03:34:57;6.13;;;5.63;;
29362;SDS011;16349;53.672;10.014;2023-07-20T03:37:23;6.63;;;6.03;;
29362;SDS011;16349;53.672;10.014;2023-07-20T03:39:50;6.37;;;5.87;;
29362;SDS011;16349;53.672;10.014;2023-07-20T03:42:17;7.63;;;6.83;;
29362;SDS011;16349;53.672;10.014;2023-07-20T03:44:44;6.50;;;6.00;;
29362;SDS011;16349;53.672;10.014;2023-07-20T03:47:11;5.83;;;5.33;;
29362;SDS011;16349;53.672;10.014;2023-07-20T03:49:39;6.70;;;5.33;;
29362;SDS011;16349;53.672;10.014;2023-07-20T03:52:06;5.33;;;4.83;;
29362;SDS011;16349;53.672;10.014;2023-07-20T03:54:33;6.27;;;5.77;;
29362;SDS011;16349;53.672;10.014;2023-07-20T03:57:00;6.23;;;5.63;;
29362;SDS011;16349;53.672;10.014;2023-07-20T03:59:27;5.67;;;5.17;;
29362;SDS011;16349;53.672;10.014;2023-07-20T04:01:54;5.93;;;5.20;;
29362;SDS011;16349;53.672;10.014;2023-07-20T04:04:21;5.93;;;5.17;;
29362;SDS011;16349;53.672;10.014;2023-07-20T04:06:49;5.57;;;5.07;;
29362;SDS011;16349;53.672;10.014;2023-07-20T04:09:16;5.27;;;4.87;;
29362;SDS011;16349;53.672;10.014;2023-07-20T04:11:42;6.50;;;4.77;;
29362;SDS011;16349;53.672;10.014;2023-07-20T04:14:09;4.70;;;4.30;;
29362;SDS011;16349;53.672;10.014;2023-07-20T04:16:36;4.90;;;4.50;;
29362;SDS011;16349;53.672;10.014;2023-07-20T04:19:03;5.53;;;4.70;;
29362;SDS011;16349;53.672;10.014;2023-07-20T04:21:30;5.77;;;5.27;;
29362;SDS011;16349;53.672;10.014;2023-07-20T04:23:59;5.50;;;5.10;;
29362;SDS011;16349;53.672;10.014;2023-07-20T04:26:26;6.40;;;5.73;;
29362;SDS011;16349;53.672;10.014;2023-07-20T04:28:52;5.40;;;4.90;;
29362;SDS011;16349;53.672;10.014;2023-07-20T04:31:41;5.83;;;5.23;;
29362;SDS011;16349;53.672;10.014;2023-07-20T04:34:08;5.43;;;5.00;;
29362;SDS011;16349;53.672;10.014;2023-07-20T04:36:35;5.17;;;4.67;;
29362;SDS011;16349;53.672;10.014;2023-07-20T04:39:04;8.50;;;4.53;;
29362;SDS011;16349;53.672;10.014;2023-07-20T04:41:36;4.43;;;4.03;;
29362;SDS011;16349;53.672;10.014;2023-07-20T04:44:03;5.07;;;4.67;;
29362;SDS011;16349;53.672;10.014;2023-07-20T04:46:30;4.80;;;4.37;;
29362;SDS011;16349;53.672;10.014;2023-07-20T04:49:00;4.40;;;4.00;;
29362;SDS011;16349;53.672;10.014;2023-07-20T04:51:29;4.87;;;3.93;;
29362;SDS011;16349;53.672;10.014;2023-07-20T04:53:57;3.87;;;3.57;;
29362;SDS011;16349;53.672;10.014;2023-07-20T04:56:28;4.50;;;3.50;;
29362;SDS011;16349;53.672;10.014;2023-07-20T04:58:56;3.90;;;3.43;;
29362;SDS011;16349;53.672;10.014;2023-07-20T05:01:23;3.97;;;3.67;;
29362;SDS011;16349;53.672;10.014;2023-07-20T05:03:51;3.80;;;3.40;;
29362;SDS011;16349;53.672;10.014;2023-07-20T05:06:19;4.00;;;3.60;;
29362;SDS011;16349;53.672;10.014;2023-07-20T05:08:45;3.37;;;3.17;;
29362;SDS011;16349;53.672;10.014;2023-07-20T05:11:12;3.27;;;3.00;;
29362;SDS011;16349;53.672;10.014;2023-07-20T05:13:41;3.57;;;2.30;;
29362;SDS011;16349;53.672;10.014;2023-07-20T05:16:07;6.53;;;2.97;;
29362;SDS011;16349;53.672;10.014;2023-07-20T05:18:34;2.90;;;2.53;;
29362;SDS011;16349;53.672;10.014;2023-07-20T05:21:01;2.97;;;2.77;;
29362;SDS011;16349;53.672;10.014;2023-07-20T05:23:28;2.60;;;2.40;;
29362;SDS011;16349;53.672;10.014;2023-07-20T05:25:55;3.93;;;2.40;;
29362;SDS011;16349;53.672;10.014;2023-07-20T05:28:22;3.30;;;2.40;;
29362;SDS011;16349;53.672;10.014;2023-07-20T05:30:50;3.33;;;2.43;;
29362;SDS011;16349;53.672;10.014;2023-07-20T05:33:17;2.30;;;2.10;;
29362;SDS011;16349;53.672;10.014;2023-07-20T05:35:44;3.07;;;2.13;;
29362;SDS011;16349;53.672;10.014;2023-07-20T05:38:11;2.50;;;1.97;;
29362;SDS011;16349;53.672;10.014;2023-07-20T05:40:39;1.90;;;1.80;;
29362;SDS011;16349;53.672;10.014;2023-07-20T05:43:07;2.70;;;2.50;;
29362;SDS011;16349;53.672;10.014;2023-07-20T05:45:34;3.77;;;2.00;;
29362;SDS011;16349;53.672;10.014;2023-07-20T05:48:02;3.30;;;1.83;;
29362;SDS011;16349;53.672;10.014;2023-07-20T05:50:30;2.90;;;2.03;;
29362;SDS011;16349;53.672;10.014;2023-07-20T05:52:57;1.90;;;1.70;;
29362;SDS011;16349;53.672;10.014;2023-07-20T05:55:23;3.07;;;1.70;;
29362;SDS011;16349;53.672;10.014;2023-07-20T05:57:50;2.03;;;1.60;;
29362;SDS011;16349;53.672;10.014;2023-07-20T06:00:20;2.87;;;1.70;;
29362;SDS011;16349;53.672;10.014;2023-07-20T06:02:51;4.03;;;2.23;;
29362;SDS011;16349;53.672;10.014;2023-07-20T06:05:19;2.20;;;1.93;;
29362;SDS011;16349;53.672;10.014;2023-07-20T06:07:47;1.87;;;1.77;;
29362;SDS011;16349;53.672;10.014;2023-07-20T06:10:13;2.17;;;1.90;;
29362;SDS011;16349;53.672;10.014;2023-07-20T06:12:41;2.07;;;1.87;;
29362;SDS011;16349;53.672;10.014;2023-07-20T06:15:23;3.53;;;1.73;;
29362;SDS011;16349;53.672;10.014;2023-07-20T06:17:51;2.53;;;1.80;;
29362;SDS011;16349;53.672;10.014;2023-07-20T06:20:19;3.03;;;1.50;;
29362;SDS011;16349;53.672;10.014;2023-07-20T06:22:46;1.70;;;1.60;;
29362;SDS011;16349;53.672;10.014;2023-07-20T06:25:13;1.90;;;1.80;;
29362;SDS011;16349;53.672;10.014;2023-07-20T06:27:40;2.47;;;1.27;;
29362;SDS011;16349;53.672;10.014;2023-07-20T06:30:08;3.60;;;1.27;;
29362;SDS011;16349;53.672;10.014;2023-07-20T06:32:36;1.30;;;1.20;;
29362;SDS011;16349;53.672;10.014;2023-07-20T06:35:03;2.53;;;1.50;;
29362;SDS011;16349;53.672;10.014;2023-07-20T06:37:32;1.20;;;1.10;;
29362;SDS011;16349;53.672;10.014;2023-07-20T06:39:59;3.07;;;1.13;;
29362;SDS011;16349;53.672;10.014;2023-07-20T06:42:26;5.87;;;1.07;;
29362;SDS011;16349;53.672;10.014;2023-07-20T06:44:53;3.30;;;1.00;;
29362;SDS011;16349;53.672;10.014;2023-07-20T06:47:20;1.97;;;1.00;;
29362;SDS011;16349;53.672;10.014;2023-07-20T06:49:47;2.73;;;1.00;;
29362;SDS011;16349;53.672;10.014;2023-07-20T06:52:14;1.67;;;1.07;;
29362;SDS011;16349;53.672;10.014;2023-07-20T06:54:42;1.87;;;0.93;;
29362;SDS011;16349;53.672;10.014;2023-07-20T06:57:09;1.87;;;1.17;;
29362;SDS011;16349;53.672;10.014;2023-07-20T06:59:35;4.63;;;1.10;;
29362;SDS011;16349;53.672;10.014;2023-07-20T07:02:04;1.53;;;1.03;;
29362;SDS011;16349;53.672;10.014;2023-07-20T07:04:31;3.57;;;1.00;;
29362;SDS011;16349;53.672;10.014;2023-07-20T07:06:58;3.17;;;1.10;;
29362;SDS011;16349;53.672;10.014;2023-07-20T07:09:26;2.70;;;0.80;;
29362;SDS011;16349;53.672;10.014;2023-07-20T07:11:54;2.50;;;1.00;;
29362;SDS011;16349;53.672;10.014;2023-07-20T07:14:21;2.53;;;1.20;;
29362;SDS011;16349;53.672;10.014;2023-07-20T07:16:48;3.70;;;1.20;;
29362;SDS011;16349;53.672;10.014;2023-07-20T07:19:14;3.73;;;1.00;;
29362;SDS011;16349;53.672;10.014;2023-07-20T07:21:42;1.93;;;1.00;;
29362;SDS011;16349;53.672;10.014;2023-07-20T07:24:08;4.27;;;1.00;;
29362;SDS011;16349;53.672;10.014;2023-07-20T07:26:36;3.57;;;1.10;;
29362;SDS011;16349;53.672;10.014;2023-07-20T07:29:04;2.37;;;0.83;;
29362;SDS011;16349;53.672;10.014;2023-07-20T07:31:34;2.77;;;1.00;;
29362;SDS011;16349;53.672;10.014;2023-07-20T07:34:01;2.20;;;0.97;;
29362;SDS011;16349;53.672;10.014;2023-07-20T07:36:28;4.13;;;1.23;;
29362;SDS011;16349;53.672;10.014;2023-07-20T07:38:55;6.27;;;1.87;;
29362;SDS011;16349;53.672;10.014;2023-07-20T07:41:22;2.60;;;1.63;;
29362;SDS011;16349;53.672;10.014;2023-07-20T07:43:49;3.27;;;1.27;;
29362;SDS011;16349;53.672;10.014;2023-07-20T07:46:17;1.73;;;1.53;;
29362;SDS011;16349;53.672;10.014;2023-07-20T07:48:44;2.40;;;1.20;;
29362;SDS011;16349;53.672;10.014;2023-07-20T07:51:11;2.53;;;1.30;;
29362;SDS011;16349;53.672;10.014;2023-07-20T07:53:38;4.50;;;1.60;;
29362;SDS011;16349;53.672;10.014;2023-07-20T07:56:06;2.67;;;1.30;;
29362;SDS011;16349;53.672;10.014;2023-07-20T07:58:33;1.93;;;1.20;;
29362;SDS011;16349;53.672;10.014;2023-07-20T08:01:00;1.53;;;1.23;;
29362;SDS011;16349;53.672;10.014;2023-07-20T08:03:29;1.97;;;1.10;;
29362;SDS011;16349;53.672;10.014;2023-07-20T08:05:56;2.00;;;1.40;;
29362;SDS011;16349;53.672;10.014;2023-07-20T08:08:23;3.93;;;1.40;;
29362;SDS011;16349;53.672;10.014;2023-07-20T08:10:52;2.63;;;1.70;;
29362;SDS011;16349;53.672;10.014;2023-07-20T08:13:20;2.90;;;1.67;;
29362;SDS011;16349;53.672;10.014;2023-07-20T08:15:49;3.73;;;1.80;;
29362;SDS011;16349;53.672;10.014;2023-07-20T08:18:17;2.63;;;1.63;;
29362;SDS011;16349;53.672;10.014;2023-07-20T08:20:46;3.33;;;1.50;;
29362;SDS011;16349;53.672;10.014;2023-07-20T08:23:14;3.80;;;1.40;;
29362;SDS011;16349;53.672;10.014;2023-07-20T08:25:41;5.53;;;1.57;;
29362;SDS011;16349;53.672;10.014;2023-07-20T08:28:09;1.53;;;1.23;;
29362;SDS011;16349;53.672;10.014;2023-07-20T08:30:40;4.73;;;1.70;;
29362;SDS011;16349;53.672;10.014;2023-07-20T08:33:08;4.97;;;1.63;;
29362;SDS011;16349;53.672;10.014;2023-07-20T08:35:36;4.60;;;1.60;;
29362;SDS011;16349;53.672;10.014;2023-07-20T08:38:06;4.63;;;1.43;;
29362;SDS011;16349;53.672;10.014;2023-07-20T08:40:34;3.53;;;1.37;;
29362;SDS011;16349;53.672;10.014;2023-07-20T08:43:06;3.60;;;1.60;;
29362;SDS011;16349;53.672;10.014;2023-07-20T08:45:33;3.10;;;1.30;;
29362;SDS011;16349;53.672;10.014;2023-07-20T08:48:01;4.13;;;1.27;;
29362;SDS011;16349;53.672;10.014;2023-07-20T08:50:31;2.27;;;1.27;;
29362;SDS011;16349;53.672;10.014;2023-07-20T08:52:58;2.70;;;1.27;;
29362;SDS011;16349;53.672;10.014;2023-07-20T08:55:28;2.70;;;1.30;;
29362;SDS011;16349;53.672;10.014;2023-07-20T08:57:56;3.70;;;1.10;;
29362;SDS011;16349;53.672;10.014;2023-07-20T09:00:24;4.70;;;1.20;;
29362;SDS011;16349;53.672;10.014;2023-07-20T09:02:52;1.50;;;1.10;;
29362;SDS011;16349;53.672;10.014;2023-07-20T09:05:20;1.30;;;0.80;;
29362;SDS011;16349;53.672;10.014;2023-07-20T09:07:49;2.67;;;0.93;;
29362;SDS011;16349;53.672;10.014;2023-07-20T09:10:16;2.60;;;0.90;;
29362;SDS011;16349;53.672;10.014;2023-07-20T09:12:44;1.50;;;0.80;;
29362;SDS011;16349;53.672;10.014;2023-07-20T09:15:11;4.47;;;1.00;;
29362;SDS011;16349;53.672;10.014;2023-07-20T09:17:38;3.50;;;0.90;;
29362;SDS011;16349;53.672;10.014;2023-07-20T09:20:06;2.80;;;0.93;;
29362;SDS011;16349;53.672;10.014;2023-07-20T09:22:36;3.27;;;1.17;;
29362;SDS011;16349;53.672;10.014;2023-07-20T09:25:05;2.60;;;0.90;;
29362;SDS011;16349;53.672;10.014;2023-07-20T09:27:37;3.90;;;1.23;;
29362;SDS011;16349;53.672;10.014;2023-07-20T09:30:07;3.23;;;1.10;;
29362;SDS011;16349;53.672;10.014;2023-07-20T09:32:39;3.73;;;1.20;;
29362;SDS011;16349;53.672;10.014;2023-07-20T09:35:12;0.87;;;0.67;;
29362;SDS011;16349;53.672;10.014;2023-07-20T09:37:40;2.77;;;0.90;;
29362;SDS011;16349;53.672;10.014;2023-07-20T09:40:11;2.70;;;0.90;;
29362;SDS011;16349;53.672;10.014;2023-07-20T09:42:42;4.30;;;1.03;;
29362;SDS011;16349;53.672;10.014;2023-07-20T09:45:11;1.77;;;0.80;;
29362;SDS011;16349;53.672;10.014;2023-07-20T09:47:38;4.00;;;1.03;;
29362;SDS011;16349;53.672;10.014;2023-07-20T09:50:06;1.23;;;0.53;;
29362;SDS011;16349;53.672;10.014;2023-07-20T09:52:37;2.83;;;0.60;;
29362;SDS011;16349;53.672;10.014;2023-07-20T09:55:06;2.40;;;0.90;;
29362;SDS011;16349;53.672;10.014;2023-07-20T09:57:34;3.40;;;0.80;;
29362;SDS011;16349;53.672;10.014;2023-07-20T10:00:03;2.73;;;0.60;;
29362;SDS011;16349;53.672;10.014;2023-07-20T10:02:40;3.53;;;0.73;;
29362;SDS011;16349;53.672;10.014;2023-07-20T10:05:08;4.07;;;1.23;;
29362;SDS011;16349;53.672;10.014;2023-07-20T10:07:40;2.43;;;0.50;;
29362;SDS011;16349;53.672;10.014;2023-07-20T10:10:10;2.10;;;0.70;;
29362;SDS011;16349;53.672;10.014;2023-07-20T10:12:39;4.73;;;0.93;;
29362;SDS011;16349;53.672;10.014;2023-07-20T10:15:10;1.77;;;0.80;;
29362;SDS011;16349;53.672;10.014;2023-07-20T10:17:43;0.70;;;0.50;;
29362;SDS011;16349;53.672;10.014;2023-07-20T10:20:19;1.63;;;0.60;;
29362;SDS011;16349;53.672;10.014;2023-07-20T10:22:47;2.43;;;0.67;;
29362;SDS011;16349;53.672;10.014;2023-07-20T10:25:16;2.20;;;0.70;;
29362;SDS011;16349;53.672;10.014;2023-07-20T10:27:46;2.87;;;0.70;;
29362;SDS011;16349;53.672;10.014;2023-07-20T10:30:14;1.33;;;0.60;;
29362;SDS011;16349;53.672;10.014;2023-07-20T10:32:44;1.47;;;0.60;;
29362;SDS011;16349;53.672;10.014;2023-07-20T10:35:12;2.10;;;0.60;;
29362;SDS011;16349;53.672;10.014;2023-07-20T10:37:46;1.07;;;0.87;;
29362;SDS011;16349;53.672;10.014;2023-07-20T10:40:24;1.47;;;0.70;;
29362;SDS011;16349;53.672;10.014;2023-07-20T10:43:02;0.93;;;0.63;;
29362;SDS011;16349;53.672;10.014;2023-07-20T10:45:41;2.57;;;0.93;;
29362;SDS011;16349;53.672;10.014;2023-07-20T10:48:16;2.07;;;0.90;;
29362;SDS011;16349;53.672;10.014;2023-07-20T10:50:45;2.20;;;0.97;;
29362;SDS011;16349;53.672;10.014;2023-07-20T10:53:13;3.17;;;0.63;;
29362;SDS011;16349;53.672;10.014;2023-07-20T10:55:42;1.77;;;0.70;;
29362;SDS011;16349;53.672;10.014;2023-07-20T10:58:11;2.60;;;0.70;;
29362;SDS011;16349;53.672;10.014;2023-07-20T11:00:58;0.70;;;0.40;;
29362;SDS011;16349;53.672;10.014;2023-07-20T11:03:28;3.50;;;0.60;;
29362;SDS011;16349;53.672;10.014;2023-07-20T11:05:57;1.27;;;0.67;;
29362;SDS011;16349;53.672;10.014;2023-07-20T11:08:40;2.17;;;0.60;;
29362;SDS011;16349;53.672;10.014;2023-07-20T11:11:22;2.80;;;0.60;;
29362;SDS011;16349;53.672;10.014;2023-07-20T11:13:53;3.73;;;0.50;;
29362;SDS011;16349;53.672;10.014;2023-07-20T11:16:27;5.00;;;0.90;;
29362;SDS011;16349;53.672;10.014;2023-07-20T11:19:03;3.27;;;0.70;;
29362;SDS011;16349;53.672;10.014;2023-07-20T11:21:35;5.33;;;0.80;;
29362;SDS011;16349;53.672;10.014;2023-07-20T11:24:03;3.60;;;0.47;;
29362;SDS011;16349;53.672;10.014;2023-07-20T11:26:39;2.87;;;0.60;;
29362;SDS011;16349;53.672;10.014;2023-07-20T11:29:06;1.30;;;0.50;;
29362;SDS011;16349;53.672;10.014;2023-07-20T11:31:34;3.33;;;0.70;;
29362;SDS011;16349;53.672;10.014;2023-07-20T11:34:03;3.03;;;0.70;;
29362;SDS011;16349;53.672;10.014;2023-07-20T11:36:30;2.20;;;0.63;;
29362;SDS011;16349;53.672;10.014;2023-07-20T11:39:00;2.20;;;0.83;;
29362;SDS011;16349;53.672;10.014;2023-07-20T11:41:29;1.23;;;0.50;;
29362;SDS011;16349;53.672;10.014;2023-07-20T11:43:57;2.40;;;0.63;;
29362;SDS011;16349;53.672;10.014;2023-07-20T11:46:24;3.43;;;0.90;;
29362;SDS011;16349;53.672;10.014;2023-07-20T11:48:55;3.30;;;0.63;;
29362;SDS011;16349;53.672;10.014;2023-07-20T11:51:24;0.77;;;0.50;;
29362;SDS011;16349;53.672;10.014;2023-07-20T11:53:52;1.20;;;0.50;;
29362;SDS011;16349;53.672;10.014;2023-07-20T11:56:19;1.57;;;0.70;;
29362;SDS011;16349;53.672;10.014;2023-07-20T11:58:46;2.53;;;0.73;;
29362;SDS011;16349;53.672;10.014;2023-07-20T12:01:13;2.93;;;0.77;;
29362;SDS011;16349;53.672;10.014;2023-07-20T12:03:41;1.67;;;0.67;;
29362;SDS011;16349;53.672;10.014;2023-07-20T12:06:09;2.80;;;0.57;;
29362;SDS011;16349;53.672;10.014;2023-07-20T12:08:39;2.50;;;1.07;;
29362;SDS011;16349;53.672;10.014;2023-07-20T12:11:06;2.47;;;0.73;;
29362;SDS011;16349;53.672;10.014;2023-07-20T12:13:37;1.03;;;0.80;;
29362;SDS011;16349;53.672;10.014;2023-07-20T12:16:12;2.37;;;0.90;;
29362;SDS011;16349;53.672;10.014;2023-07-20T12:18:41;4.77;;;1.03;;
29362;SDS011;16349;53.672;10.014;2023-07-20T12:21:08;2.63;;;0.80;;
29362;SDS011;16349;53.672;10.014;2023-07-20T12:23:36;4.23;;;1.00;;
29362;SDS011;16349;53.672;10.014;2023-07-20T12:26:06;3.47;;;0.93;;
29362;SDS011;16349;53.672;10.014;2023-07-20T12:28:35;1.17;;;0.50;;
29362;SDS011;16349;53.672;10.014;2023-07-20T12:31:06;2.37;;;0.90;;
29362;SDS011;16349;53.672;10.014;2023-07-20T12:33:33;4.20;;;1.30;;
29362;SDS011;16349;53.672;10.014;2023-07-20T12:36:00;2.27;;;0.80;;
29362;SDS011;16349;53.672;10.014;2023-07-20T12:38:27;2.53;;;0.93;;
29362;SDS011;16349;53.672;10.014;2023-07-20T12:40:57;3.67;;;1.30;;
29362;SDS011;16349;53.672;10.014;2023-07-20T12:43:25;3.33;;;1.20;;
29362;SDS011;16349;53.672;10.014;2023-07-20T12:45:52;1.97;;;0.90;;
29362;SDS011;16349;53.672;10.014;2023-07-20T12:48:20;5.03;;;1.30;;
29362;SDS011;16349;53.672;10.014;2023-07-20T12:50:47;1.50;;;0.93;;
29362;SDS011;16349;53.672;10.014;2023-07-20T12:53:14;2.80;;;0.70;;
29362;SDS011;16349;53.672;10.014;2023-07-20T12:55:41;1.70;;;0.63;;
29362;SDS011;16349;53.672;10.014;2023-07-20T12:58:11;1.70;;;0.60;;
29362;SDS011;16349;53.672;10.014;2023-07-20T13:00:39;3.07;;;0.80;;
29362;SDS011;16349;53.672;10.014;2023-07-20T13:03:06;2.03;;;0.57;;
29362;SDS011;16349;53.672;10.014;2023-07-20T13:05:33;1.60;;;0.63;;
29362;SDS011;16349;53.672;10.014;2023-07-20T13:08:01;1.40;;;0.67;;
29362;SDS011;16349;53.672;10.014;2023-07-20T13:10:28;2.57;;;0.73;;
29362;SDS011;16349;53.672;10.014;2023-07-20T13:12:56;1.53;;;0.73;;
29362;SDS011;16349;53.672;10.014;2023-07-20T13:15:28;1.53;;;0.60;;
29362;SDS011;16349;53.672;10.014;2023-07-20T13:17:57;2.43;;;1.00;;
29362;SDS011;16349;53.672;10.014;2023-07-20T13:20:25;2.50;;;1.00;;
29362;SDS011;16349;53.672;10.014;2023-07-20T13:22:53;5.83;;;1.20;;
29362;SDS011;16349;53.672;10.014;2023-07-20T13:25:20;2.70;;;1.03;;
29362;SDS011;16349;53.672;10.014;2023-07-20T13:27:47;5.60;;;1.53;;
29362;SDS011;16349;53.672;10.014;2023-07-20T13:30:14;3.20;;;1.30;;
29362;SDS011;16349;53.672;10.014;2023-07-20T13:32:43;3.43;;;1.10;;
29362;SDS011;16349;53.672;10.014;2023-07-20T13:35:10;2.00;;;0.90;;
29362;SDS011;16349;53.672;10.014;2023-07-20T13:37:38;4.87;;;1.00;;
29362;SDS011;16349;53.672;10.014;2023-07-20T13:40:05;1.33;;;0.80;;
29362;SDS011;16349;53.672;10.014;2023-07-20T13:42:33;1.30;;;0.87;;
29362;SDS011;16349;53.672;10.014;2023-07-20T13:45:00;3.83;;;0.87;;
29362;SDS011;16349;53.672;10.014;2023-07-20T13:47:29;3.53;;;1.37;;
29362;SDS011;16349;53.672;10.014;2023-07-20T13:49:57;1.60;;;0.90;;
29362;SDS011;16349;53.672;10.014;2023-07-20T13:52:24;2.17;;;1.03;;
29362;SDS011;16349;53.672;10.014;2023-07-20T13:54:51;2.83;;;1.50;;
29362;SDS011;16349;53.672;10.014;2023-07-20T13:57:18;1.67;;;0.80;;
29362;SDS011;16349;53.672;10.014;2023-07-20T13:59:45;1.30;;;1.03;;
29362;SDS011;16349;53.672;10.014;2023-07-20T14:02:13;3.13;;;0.47;;
29362;SDS011;16349;53.672;10.014;2023-07-20T14:04:40;0.90;;;0.40;;
29362;SDS011;16349;53.672;10.014;2023-07-20T14:07:08;1.30;;;0.47;;
29362;SDS011;16349;53.672;10.014;2023-07-20T14:09:36;1.23;;;0.40;;
29362;SDS011;16349;53.672;10.014;2023-07-20T14:12:03;0.90;;;0.50;;
29362;SDS011;16349;53.672;10.014;2023-07-20T14:14:31;0.63;;;0.40;;
29362;SDS011;16349;53.672;10.014;2023-07-20T14:16:58;1.10;;;0.37;;
29362;SDS011;16349;53.672;10.014;2023-07-20T14:19:25;1.40;;;0.70;;
29362;SDS011;16349;53.672;10.014;2023-07-20T14:21:51;1.60;;;0.38;;
29362;SDS011;16349;53.672;10.014;2023-07-20T14:24:21;2.47;;;0.50;;
29362;SDS011;16349;53.672;10.014;2023-07-20T14:26:48;3.78;;;1.00;;
29362;SDS011;16349;53.672;10.014;2023-07-20T14:29:15;1.60;;;0.70;;
29362;SDS011;16349;53.672;10.014;2023-07-20T14:31:43;0.90;;;0.50;;
29362;SDS011;16349;53.672;10.014;2023-07-20T14:34:10;1.75;;;0.70;;
29362;SDS011;16349;53.672;10.014;2023-07-20T14:36:37;1.40;;;0.73;;
29362;SDS011;16349;53.672;10.014;2023-07-20T14:39:04;2.33;;;1.00;;
29362;SDS011;16349;53.672;10.014;2023-07-20T14:41:33;1.10;;;0.85;;